Time;durP1;ratioP1;P1;durP2;ratioP2;P2;SDS_P1;SDS_P2;PMS_P1;PMS_P2;Temp;Humidity;BMP_temperature;BMP_pressure;BME280_temperature;BME280_humidity;BME280_pressure;Samples;Min_cycle;Max_cycle;Signal;HPM_P1;HPM_P2
2023/01/18 00:00:40;;;;;;;2.10;1.90;;;;;;;;;;4994554;28;20109;-79
2023/01/18 00:03:10;;;;;;;3.60;1.98;;;;;;;;;;4977395;28;20030;-80
2023/01/18 00:05:39;;;;;;;3.42;1.67;;;;;;;;;;4978216;28;20093;-79
2023/01/18 00:08:09;;;;;;;3.38;2.10;;;;;;;;;;4978457;28;20381;-79
2023/01/18 00:10:34;;;;;;;4.03;2.22;;;;;;;;;;4994957;28;20035;-80
2023/01/18 00:13:00;;;;;;;2.63;1.77;;;;;;;;;;4961326;28;20030;-79
2023/01/18 00:15:25;;;;;;;2.20;1.80;;;;;;;;;;4994898;28;20039;-79
2023/01/18 00:17:50;;;;;;;3.05;1.88;;;;;;;;;;4994774;28;20077;-79
2023/01/18 00:20:20;;;;;;;2.33;1.70;;;;;;;;;;4994547;28;20058;-79
2023/01/18 00:22:46;;;;;;;2.60;1.77;;;;;;;;;;4977603;28;20429;-80
2023/01/18 00:25:12;;;;;;;2.67;1.75;;;;;;;;;;4977527;28;20040;-79
2023/01/18 00:27:37;;;;;;;2.38;2.03;;;;;;;;;;4977277;28;20046;-79
2023/01/18 00:30:04;;;;;;;3.25;2.00;;;;;;;;;;4977185;28;20038;-79
2023/01/18 00:32:29;;;;;;;2.60;1.83;;;;;;;;;;4977112;28;20117;-79
2023/01/18 00:34:55;;;;;;;2.40;1.65;;;;;;;;;;4994731;28;20497;-79
2023/01/18 00:37:23;;;;;;;4.60;1.90;;;;;;;;;;4994622;28;20030;-79
2023/01/18 00:39:48;;;;;;;3.08;1.85;;;;;;;;;;4977086;28;20037;-79
2023/01/18 00:44:57;;;;;;;2.85;2.00;;;;;;;;;;4979734;28;20041;-79
2023/01/18 00:47:23;;;;;;;3.00;1.90;;;;;;;;;;4994402;28;20034;-80
2023/01/18 00:49:49;;;;;;;2.97;2.10;;;;;;;;;;4994476;28;20111;-80
2023/01/18 00:52:14;;;;;;;3.05;1.90;;;;;;;;;;4944714;28;20507;-80
2023/01/18 00:54:39;;;;;;;3.20;1.98;;;;;;;;;;4994099;28;20370;-79
2023/01/18 00:57:05;;;;;;;3.17;1.60;;;;;;;;;;4993987;28;20037;-79
2023/01/18 00:59:30;;;;;;;2.08;1.80;;;;;;;;;;4994081;28;20061;-79
2023/01/18 01:01:55;;;;;;;2.88;2.05;;;;;;;;;;4994257;28;20113;-80
2023/01/18 01:07:05;;;;;;;1.77;1.60;;;;;;;;;;4993966;28;20161;-80
2023/01/18 01:09:30;;;;;;;2.90;1.75;;;;;;;;;;4993940;28;20453;-79
2023/01/18 01:26:12;;;;;;;2.28;1.75;;;;;;;;;;4979267;28;20116;-80
2023/01/18 01:28:48;;;;;;;2.70;1.70;;;;;;;;;;4993779;28;20446;-80
2023/01/18 01:31:15;;;;;;;2.45;1.70;;;;;;;;;;4976215;28;20022;-81
2023/01/18 01:33:41;;;;;;;1.70;1.60;;;;;;;;;;4976337;28;20030;-80
2023/01/18 01:36:13;;;;;;;2.85;2.00;;;;;;;;;;4993680;28;20030;-81
2023/01/18 01:38:42;;;;;;;1.90;1.70;;;;;;;;;;4993783;28;20032;-81
2023/01/18 01:41:17;;;;;;;3.63;1.63;;;;;;;;;;4976593;28;20142;-81
2023/01/18 01:43:45;;;;;;;2.47;1.73;;;;;;;;;;4993697;28;20032;-81
2023/01/18 01:46:20;;;;;;;3.42;1.70;;;;;;;;;;4994541;28;20043;-80
2023/01/18 01:48:47;;;;;;;2.47;1.73;;;;;;;;;;4993469;28;20044;-80
2023/01/18 01:51:14;;;;;;;2.15;1.73;;;;;;;;;;4976004;28;20085;-80
2023/01/18 01:53:40;;;;;;;3.10;1.67;;;;;;;;;;4976084;28;20080;-80
2023/01/18 01:56:06;;;;;;;1.90;1.60;;;;;;;;;;4993330;28;20034;-80
2023/01/18 01:58:32;;;;;;;4.80;1.75;;;;;;;;;;4976216;28;20045;-80
2023/01/18 02:00:57;;;;;;;1.70;1.60;;;;;;;;;;4959905;28;20462;-80
2023/01/18 02:03:23;;;;;;;2.55;1.70;;;;;;;;;;4993407;28;20114;-80
2023/01/18 02:05:56;;;;;;;2.92;1.80;;;;;;;;;;4976219;28;20033;-80
2023/01/18 02:08:21;;;;;;;3.50;1.95;;;;;;;;;;4975868;28;20053;-80
2023/01/18 02:10:51;;;;;;;2.67;1.58;;;;;;;;;;4993307;28;20054;-80
2023/01/18 02:13:17;;;;;;;2.10;1.90;;;;;;;;;;4975832;28;20026;-79
2023/01/18 02:16:04;;;;;;;3.20;1.90;;;;;;;;;;4975937;28;20042;-79
2023/01/18 02:18:42;;;;;;;5.40;1.75;;;;;;;;;;4993035;28;20512;-80
2023/01/18 02:21:27;;;;;;;3.08;1.80;;;;;;;;;;4975870;28;20026;-78
2023/01/18 02:24:22;;;;;;;2.78;1.88;;;;;;;;;;4976067;28;20027;-78
2023/01/18 02:27:04;;;;;;;2.28;1.80;;;;;;;;;;4996901;28;20028;-78
2023/01/18 02:30:06;;;;;;;3.22;1.80;;;;;;;;;;4979299;28;20034;-78
2023/01/18 02:32:44;;;;;;;3.35;1.65;;;;;;;;;;4996766;28;20018;-77
2023/01/18 02:35:19;;;;;;;2.53;1.90;;;;;;;;;;4979293;28;20018;-79
2023/01/18 02:38:03;;;;;;;4.05;1.80;;;;;;;;;;4979228;28;20390;-80
2023/01/18 02:40:56;;;;;;;3.00;1.70;;;;;;;;;;4996646;28;20418;-80
2023/01/18 02:48:56;;;;;;;2.13;1.60;;;;;;;;;;4982039;28;20503;-80
2023/01/18 02:51:21;;;;;;;2.85;1.73;;;;;;;;;;4979007;28;20041;-80
2023/01/18 02:53:47;;;;;;;2.60;1.75;;;;;;;;;;4979251;28;20023;-80
2023/01/18 02:56:50;;;;;;;2.47;1.95;;;;;;;;;;4996369;28;20041;-79
2023/01/18 02:59:21;;;;;;;7.57;2.10;;;;;;;;;;4995801;28;20489;-79
2023/01/18 03:01:50;;;;;;;4.53;2.10;;;;;;;;;;4979127;28;20064;-79
2023/01/18 03:04:24;;;;;;;7.82;2.00;;;;;;;;;;4996688;28;20076;-79
2023/01/18 03:06:56;;;;;;;4.20;2.03;;;;;;;;;;4978851;28;20128;-79
2023/01/18 03:09:25;;;;;;;7.07;2.30;;;;;;;;;;4979253;28;20088;-79
2023/01/18 03:11:51;;;;;;;3.10;1.85;;;;;;;;;;4963094;28;20033;-79
2023/01/18 03:14:40;;;;;;;2.88;1.70;;;;;;;;;;4978350;28;20350;-79
2023/01/18 03:17:35;;;;;;;6.05;2.30;;;;;;;;;;4978391;28;20033;-79
2023/01/18 03:20:08;;;;;;;3.92;1.95;;;;;;;;;;4989116;28;20050;-79
2023/01/18 03:25:24;;;;;;;3.72;2.10;;;;;;;;;;4995032;28;20393;-79
2023/01/18 03:36:09;;;;;;;4.28;2.00;;;;;;;;;;4994484;28;20062;-80
2023/01/18 03:38:35;;;;;;;4.65;2.22;;;;;;;;;;4994562;28;20446;-80
2023/01/18 03:41:00;;;;;;;3.55;2.10;;;;;;;;;;4995474;28;20564;-79
2023/01/18 03:43:27;;;;;;;3.40;2.20;;;;;;;;;;4994204;28;20117;-79
2023/01/18 03:45:54;;;;;;;3.15;1.92;;;;;;;;;;4994473;28;20034;-79
2023/01/18 03:48:20;;;;;;;3.83;2.25;;;;;;;;;;4994265;28;20030;-78
2023/01/18 03:50:51;;;;;;;3.03;1.98;;;;;;;;;;4994342;28;20034;-79
2023/01/18 03:54:14;;;;;;;4.95;2.58;;;;;;;;;;4994370;28;20440;-78
2023/01/18 03:56:49;;;;;;;2.30;1.75;;;;;;;;;;4962994;28;20117;-78
2023/01/18 03:59:15;;;;;;;3.00;1.80;;;;;;;;;;4994031;28;20049;-78
2023/01/18 04:01:43;;;;;;;3.42;2.15;;;;;;;;;;4977690;28;20076;-78
2023/01/18 04:04:09;;;;;;;3.88;2.00;;;;;;;;;;4994601;28;20034;-78
2023/01/18 04:06:34;;;;;;;2.33;1.80;;;;;;;;;;4993872;28;20426;-78
2023/01/18 04:09:00;;;;;;;2.92;1.80;;;;;;;;;;4993778;28;20513;-78
2023/01/18 04:11:25;;;;;;;3.15;1.80;;;;;;;;;;4994946;28;20036;-78
2023/01/18 04:13:50;;;;;;;2.72;1.98;;;;;;;;;;4993635;28;20145;-78
2023/01/18 04:16:16;;;;;;;3.17;2.05;;;;;;;;;;4995643;28;20034;-79
2023/01/18 04:18:41;;;;;;;2.60;1.90;;;;;;;;;;4994776;28;20061;-79
2023/01/18 04:21:06;;;;;;;3.60;2.10;;;;;;;;;;4977459;28;20666;-78
2023/01/18 04:23:32;;;;;;;6.00;2.30;;;;;;;;;;4994682;28;20044;-79
2023/01/18 04:25:58;;;;;;;3.67;2.03;;;;;;;;;;4994694;28;20038;-78
2023/01/18 04:28:26;;;;;;;2.47;1.88;;;;;;;;;;4977148;28;20084;-78
2023/01/18 04:30:52;;;;;;;2.08;1.58;;;;;;;;;;4994720;28;20034;-78
2023/01/18 04:33:19;;;;;;;2.42;1.98;;;;;;;;;;4995036;28;20466;-78
2023/01/18 04:35:45;;;;;;;1.92;1.60;;;;;;;;;;4977145;28;20030;-78
2023/01/18 04:38:11;;;;;;;2.15;1.65;;;;;;;;;;4977024;28;20026;-78
2023/01/18 04:40:36;;;;;;;2.33;1.92;;;;;;;;;;4994321;28;20052;-78
2023/01/18 04:43:01;;;;;;;3.40;1.95;;;;;;;;;;4976886;28;20042;-78
2023/01/18 04:45:27;;;;;;;4.88;1.75;;;;;;;;;;4995040;28;20034;-78
2023/01/18 04:47:52;;;;;;;4.22;1.90;;;;;;;;;;4993823;28;20053;-79
2023/01/18 04:50:17;;;;;;;2.88;1.65;;;;;;;;;;4976811;28;20037;-79
2023/01/18 04:52:43;;;;;;;2.58;1.70;;;;;;;;;;4976980;28;20473;-78
2023/01/18 04:55:10;;;;;;;3.60;2.00;;;;;;;;;;4976697;28;20041;-78
2023/01/18 04:57:35;;;;;;;2.13;1.55;;;;;;;;;;4976946;28;20030;-78
2023/01/18 05:00:01;;;;;;;2.67;1.50;;;;;;;;;;4977010;28;20202;-78
2023/01/18 05:02:26;;;;;;;3.17;1.85;;;;;;;;;;4994074;28;20084;-78
2023/01/18 05:04:52;;;;;;;2.30;1.67;;;;;;;;;;4977138;28;20041;-78
2023/01/18 05:07:17;;;;;;;2.97;1.90;;;;;;;;;;4994240;28;20495;-78
2023/01/18 05:09:42;;;;;;;2.85;2.00;;;;;;;;;;4976780;28;20034;-78
2023/01/18 05:12:08;;;;;;;3.03;2.15;;;;;;;;;;4976863;28;20026;-78
2023/01/18 05:14:33;;;;;;;2.20;1.80;;;;;;;;;;4994090;28;20042;-77
2023/01/18 05:16:58;;;;;;;1.63;1.52;;;;;;;;;;4977019;28;20469;-78
2023/01/18 05:19:28;;;;;;;3.70;1.95;;;;;;;;;;4960506;28;20501;-76
2023/01/18 05:21:54;;;;;;;2.50;1.90;;;;;;;;;;4994013;28;20052;-80
2023/01/18 05:24:19;;;;;;;3.53;2.10;;;;;;;;;;4978009;28;20525;-77
2023/01/18 05:26:44;;;;;;;4.57;2.30;;;;;;;;;;5014060;28;20131;-80
2023/01/18 05:29:10;;;;;;;4.43;2.05;;;;;;;;;;5012654;28;20393;-81
2023/01/18 05:31:35;;;;;;;4.90;2.05;;;;;;;;;;5013564;28;20112;-80
2023/01/18 05:34:01;;;;;;;4.53;2.35;;;;;;;;;;4995831;28;20083;-81
2023/01/18 05:36:26;;;;;;;3.10;2.13;;;;;;;;;;5012258;28;20022;-80
2023/01/18 05:38:51;;;;;;;2.58;1.90;;;;;;;;;;5013595;28;20041;-80
2023/01/18 05:41:17;;;;;;;5.65;2.08;;;;;;;;;;5013781;28;20029;-80
2023/01/18 05:43:42;;;;;;;4.47;2.33;;;;;;;;;;5013671;28;20153;-80
2023/01/18 05:46:08;;;;;;;5.93;2.28;;;;;;;;;;5012331;28;20037;-78
2023/01/18 05:48:33;;;;;;;5.40;2.33;;;;;;;;;;5012256;28;20025;-79
2023/01/18 05:50:59;;;;;;;5.18;2.20;;;;;;;;;;5013353;28;20084;-79
2023/01/18 05:53:24;;;;;;;7.88;2.45;;;;;;;;;;5013845;28;20041;-79
2023/01/18 05:55:54;;;;;;;9.85;3.00;;;;;;;;;;5012255;28;20389;-85
2023/01/18 05:58:19;;;;;;;6.68;2.88;;;;;;;;;;5013944;28;20029;-82
2023/01/18 06:00:45;;;;;;;5.05;2.50;;;;;;;;;;5017868;28;20416;-80
2023/01/18 06:03:10;;;;;;;7.25;2.40;;;;;;;;;;5016054;28;20117;-81
2023/01/18 06:05:36;;;;;;;10.10;2.88;;;;;;;;;;5017162;28;20484;-81
2023/01/18 06:08:01;;;;;;;17.58;5.10;;;;;;;;;;5015907;28;20080;-80
2023/01/18 06:10:27;;;;;;;16.02;4.20;;;;;;;;;;5017104;28;20417;-80
2023/01/18 06:12:52;;;;;;;20.42;5.35;;;;;;;;;;5017124;28;20045;-79
2023/01/18 06:15:17;;;;;;;13.13;3.42;;;;;;;;;;5017686;28;20068;-81
2023/01/18 06:17:45;;;;;;;13.00;3.72;;;;;;;;;;5015771;28;20104;-80
2023/01/18 06:20:11;;;;;;;16.25;3.60;;;;;;;;;;5015534;28;20069;-80
2023/01/18 06:22:36;;;;;;;10.40;3.30;;;;;;;;;;5017195;28;20469;-80
2023/01/18 06:25:02;;;;;;;10.30;3.70;;;;;;;;;;5016002;28;20037;-81
2023/01/18 06:27:27;;;;;;;14.30;4.88;;;;;;;;;;5015582;28;20083;-81
2023/01/18 06:29:53;;;;;;;11.00;3.85;;;;;;;;;;5015936;28;20064;-80
2023/01/18 06:32:18;;;;;;;12.02;3.88;;;;;;;;;;5016974;28;20034;-81
2023/01/18 06:34:43;;;;;;;10.38;3.67;;;;;;;;;;5016653;28;20030;-80
2023/01/18 06:37:09;;;;;;;11.43;3.22;;;;;;;;;;5015591;28;20037;-81
2023/01/18 06:39:34;;;;;;;10.32;2.80;;;;;;;;;;5016557;28;20065;-81
2023/01/18 06:42:00;;;;;;;10.02;3.67;;;;;;;;;;4998954;28;20041;-81
2023/01/18 06:44:25;;;;;;;8.05;3.40;;;;;;;;;;5017065;28;20366;-81
2023/01/18 06:46:51;;;;;;;8.50;3.30;;;;;;;;;;5015529;28;20088;-80
2023/01/18 06:49:17;;;;;;;8.43;3.42;;;;;;;;;;5015112;28;20034;-81
2023/01/18 06:51:42;;;;;;;11.23;3.40;;;;;;;;;;5016557;28;20029;-81
2023/01/18 06:54:07;;;;;;;8.90;3.00;;;;;;;;;;5016225;28;20443;-81
2023/01/18 06:56:33;;;;;;;11.18;3.65;;;;;;;;;;5016190;28;20053;-81
2023/01/18 06:58:59;;;;;;;7.38;3.13;;;;;;;;;;5016904;28;20033;-81
2023/01/18 07:01:25;;;;;;;7.00;2.92;;;;;;;;;;5016496;28;20038;-82
2023/01/18 07:03:51;;;;;;;4.20;2.55;;;;;;;;;;5015220;28;20128;-81
2023/01/18 07:06:16;;;;;;;4.43;2.38;;;;;;;;;;5015258;28;20041;-81
2023/01/18 07:08:42;;;;;;;6.72;2.67;;;;;;;;;;5016333;28;20057;-82
2023/01/18 07:11:10;;;;;;;4.55;2.95;;;;;;;;;;4997920;28;20152;-81
2023/01/18 07:13:38;;;;;;;6.47;2.80;;;;;;;;;;5015306;28;20021;-81
2023/01/18 07:16:05;;;;;;;6.05;2.85;;;;;;;;;;5014917;28;20030;-82
2023/01/18 07:18:31;;;;;;;4.25;2.67;;;;;;;;;;5018473;28;20026;-82
2023/01/18 07:20:58;;;;;;;5.30;2.47;;;;;;;;;;5055508;28;20491;-82
2023/01/18 07:23:24;;;;;;;5.03;2.60;;;;;;;;;;5037708;28;20029;-81
2023/01/18 07:26:00;;;;;;;4.68;2.55;;;;;;;;;;5037385;28;20024;-81
2023/01/18 07:28:26;;;;;;;5.68;2.50;;;;;;;;;;5037430;28;20100;-81
2023/01/18 07:30:51;;;;;;;5.30;2.75;;;;;;;;;;5037545;28;20122;-82
2023/01/18 07:33:17;;;;;;;4.57;2.28;;;;;;;;;;5055232;28;20112;-80
2023/01/18 07:35:42;;;;;;;9.43;2.63;;;;;;;;;;5054957;28;20033;-81
2023/01/18 07:38:08;;;;;;;3.45;2.40;;;;;;;;;;5055614;28;20033;-81
2023/01/18 07:40:33;;;;;;;10.27;2.55;;;;;;;;;;5055612;28;20035;-81
2023/01/18 07:42:59;;;;;;;5.97;2.95;;;;;;;;;;5037317;28;20535;-80
2023/01/18 07:45:24;;;;;;;5.45;2.53;;;;;;;;;;5055380;28;20043;-80
2023/01/18 07:47:51;;;;;;;5.20;2.40;;;;;;;;;;5055240;28;20063;-80
2023/01/18 07:50:17;;;;;;;2.85;1.95;;;;;;;;;;5055370;28;20051;-80
2023/01/18 07:52:42;;;;;;;6.05;2.53;;;;;;;;;;5055009;28;20033;-81
2023/01/18 07:55:08;;;;;;;2.92;2.25;;;;;;;;;;5055122;28;20079;-81
2023/01/18 07:57:33;;;;;;;3.58;2.38;;;;;;;;;;5037129;28;20061;-81
2023/01/18 07:59:59;;;;;;;4.53;2.67;;;;;;;;;;5036785;28;20025;-82
2023/01/18 08:02:24;;;;;;;3.45;2.65;;;;;;;;;;5036899;28;20434;-82
2023/01/18 08:04:50;;;;;;;3.70;2.35;;;;;;;;;;5037177;28;20028;-82
2023/01/18 08:07:16;;;;;;;4.45;2.30;;;;;;;;;;5020145;28;20052;-82
2023/01/18 08:09:42;;;;;;;4.18;2.17;;;;;;;;;;5036956;28;20115;-82
2023/01/18 08:12:12;;;;;;;3.88;2.42;;;;;;;;;;5054822;28;20059;-82
2023/01/18 08:14:37;;;;;;;4.57;2.42;;;;;;;;;;5054994;28;20033;-82
2023/01/18 08:17:05;;;;;;;3.80;2.20;;;;;;;;;;5036561;28;20454;-81
2023/01/18 08:19:30;;;;;;;4.65;2.25;;;;;;;;;;5054587;28;20068;-82
2023/01/18 08:21:56;;;;;;;3.45;2.38;;;;;;;;;;5053282;28;20080;-83
2023/01/18 08:24:21;;;;;;;4.40;2.22;;;;;;;;;;5036334;28;20071;-80
2023/01/18 08:26:46;;;;;;;3.55;2.25;;;;;;;;;;5036630;28;20384;-81
2023/01/18 08:29:12;;;;;;;3.22;2.13;;;;;;;;;;5036407;28;20059;-82
2023/01/18 08:31:38;;;;;;;3.72;2.10;;;;;;;;;;5054104;28;20061;-82
2023/01/18 08:34:03;;;;;;;2.78;2.10;;;;;;;;;;5053037;28;20040;-81
2023/01/18 08:36:30;;;;;;;3.65;2.60;;;;;;;;;;5035470;28;20033;-81
2023/01/18 08:38:56;;;;;;;3.50;2.10;;;;;;;;;;5053359;28;20029;-81
2023/01/18 08:41:27;;;;;;;8.27;2.53;;;;;;;;;;5035411;28;20036;-81
2023/01/18 08:43:56;;;;;;;4.22;1.83;;;;;;;;;;5036198;28;20028;-80
2023/01/18 08:46:22;;;;;;;10.98;2.30;;;;;;;;;;5035630;28;20035;-81
2023/01/18 08:48:49;;;;;;;4.40;2.13;;;;;;;;;;5035209;28;20029;-81
2023/01/18 08:51:16;;;;;;;10.75;2.10;;;;;;;;;;5035387;28;20108;-81
2023/01/18 08:53:42;;;;;;;4.63;2.22;;;;;;;;;;5035146;28;20503;-80
2023/01/18 08:56:08;;;;;;;11.50;1.77;;;;;;;;;;5035018;28;20021;-80
2023/01/18 08:58:33;;;;;;;3.42;2.22;;;;;;;;;;5035203;28;20025;-81
2023/01/18 09:00:58;;;;;;;3.83;2.05;;;;;;;;;;5018712;28;20586;-81
2023/01/18 09:03:24;;;;;;;3.15;2.00;;;;;;;;;;5018440;28;20029;-80
2023/01/18 09:05:50;;;;;;;10.15;1.85;;;;;;;;;;5035038;28;20055;-82
2023/01/18 09:08:16;;;;;;;3.45;2.20;;;;;;;;;;5052810;28;20040;-79
2023/01/18 09:10:42;;;;;;;5.47;2.50;;;;;;;;;;5052831;28;20031;-78
2023/01/18 09:13:08;;;;;;;2.78;2.10;;;;;;;;;;5035217;28;20111;-79
2023/01/18 09:15:34;;;;;;;2.78;1.95;;;;;;;;;;5019040;28;20033;-81
2023/01/18 09:18:04;;;;;;;5.22;2.17;;;;;;;;;;5034809;28;20373;-80
2023/01/18 09:20:30;;;;;;;2.42;1.80;;;;;;;;;;5035531;28;20088;-82
2023/01/18 09:22:55;;;;;;;4.22;2.28;;;;;;;;;;5035286;28;20033;-82
2023/01/18 09:25:20;;;;;;;6.20;1.92;;;;;;;;;;5034963;28;20061;-81
2023/01/18 09:27:46;;;;;;;3.40;2.10;;;;;;;;;;5034936;28;20040;-82
2023/01/18 09:30:14;;;;;;;3.88;2.30;;;;;;;;;;5018492;28;20033;-82
2023/01/18 09:32:40;;;;;;;2.80;2.10;;;;;;;;;;5052504;28;20025;-83
2023/01/18 09:35:07;;;;;;;9.23;2.45;;;;;;;;;;5034609;28;20044;-81
2023/01/18 09:37:32;;;;;;;3.80;2.03;;;;;;;;;;5052670;28;20059;-79
2023/01/18 09:39:59;;;;;;;5.65;2.55;;;;;;;;;;5035714;28;20460;-80
2023/01/18 09:42:29;;;;;;;3.08;2.10;;;;;;;;;;5035279;28;20037;-81
2023/01/18 09:44:58;;;;;;;5.85;2.22;;;;;;;;;;5035424;28;20468;-80
2023/01/18 09:47:39;;;;;;;3.25;1.90;;;;;;;;;;5035474;28;20060;-81
2023/01/18 09:50:13;;;;;;;4.72;2.40;;;;;;;;;;5052978;28;20033;-79
2023/01/18 09:53:03;;;;;;;5.47;2.40;;;;;;;;;;5010771;28;20048;-79
2023/01/18 09:55:37;;;;;;;3.88;2.33;;;;;;;;;;5015276;28;20447;-80
2023/01/18 09:58:18;;;;;;;4.90;2.28;;;;;;;;;;5032931;28;20036;-80
2023/01/18 10:00:45;;;;;;;2.83;1.98;;;;;;;;;;5032636;28;20034;-80
2023/01/18 10:03:17;;;;;;;8.88;3.20;;;;;;;;;;5015623;28;20023;-81
2023/01/18 10:06:07;;;;;;;5.20;2.15;;;;;;;;;;5015401;28;20017;-81
2023/01/18 10:08:54;;;;;;;3.05;2.30;;;;;;;;;;5016931;28;20025;-80
2023/01/18 10:11:36;;;;;;;3.85;2.40;;;;;;;;;;5031839;28;20037;-80
2023/01/18 10:14:07;;;;;;;3.88;2.10;;;;;;;;;;4998424;28;20026;-80
2023/01/18 10:16:33;;;;;;;4.55;2.30;;;;;;;;;;4998563;28;20125;-80
2023/01/18 10:19:00;;;;;;;3.88;2.45;;;;;;;;;;5026799;28;20077;-80
2023/01/18 10:21:36;;;;;;;3.25;2.05;;;;;;;;;;4978742;28;20033;-80
2023/01/18 10:24:21;;;;;;;3.38;2.15;;;;;;;;;;4995540;28;20365;-80
2023/01/18 10:26:48;;;;;;;6.05;2.05;;;;;;;;;;4979170;28;20057;-82
2023/01/18 10:29:44;;;;;;;3.28;2.10;;;;;;;;;;4979384;28;20049;-80
2023/01/18 10:32:19;;;;;;;2.75;1.95;;;;;;;;;;4995106;28;20037;-81
2023/01/18 10:34:48;;;;;;;4.00;2.40;;;;;;;;;;4995305;28;20084;-81
2023/01/18 10:37:28;;;;;;;3.90;2.30;;;;;;;;;;4978966;28;20058;-81
2023/01/18 10:40:00;;;;;;;6.65;1.90;;;;;;;;;;4978930;28;20025;-81
2023/01/18 10:42:32;;;;;;;3.10;2.10;;;;;;;;;;5012405;28;20493;-80
2023/01/18 10:44:58;;;;;;;3.53;2.30;;;;;;;;;;4995304;28;20034;-80
2023/01/18 10:47:23;;;;;;;2.80;2.03;;;;;;;;;;4982763;28;20105;-80
2023/01/18 10:49:49;;;;;;;2.45;1.85;;;;;;;;;;5016314;28;20037;-80
2023/01/18 10:52:23;;;;;;;3.30;2.15;;;;;;;;;;4998023;28;20033;-79
2023/01/18 10:54:54;;;;;;;4.22;2.08;;;;;;;;;;4983792;28;20030;-79
2023/01/18 10:57:27;;;;;;;3.67;2.30;;;;;;;;;;4998838;28;20105;-79
2023/01/18 10:59:54;;;;;;;8.63;1.88;;;;;;;;;;4998800;28;20057;-80
2023/01/18 11:02:29;;;;;;;4.57;2.20;;;;;;;;;;4982040;28;20113;-80
2023/01/18 11:05:14;;;;;;;3.13;2.13;;;;;;;;;;4999623;28;20022;-81
2023/01/18 11:07:40;;;;;;;3.10;2.15;;;;;;;;;;5000008;28;20017;-80
2023/01/18 11:10:27;;;;;;;5.63;2.28;;;;;;;;;;4998499;28;20041;-80
2023/01/18 11:12:53;;;;;;;4.35;2.08;;;;;;;;;;5016135;28;20088;-80
2023/01/18 11:15:18;;;;;;;5.40;2.30;;;;;;;;;;4998712;28;20428;-80
2023/01/18 11:17:56;;;;;;;3.55;2.10;;;;;;;;;;4999070;28;20491;-80
2023/01/18 11:20:54;;;;;;;2.92;2.20;;;;;;;;;;5015237;28;20412;-80
2023/01/18 11:23:24;;;;;;;6.50;2.08;;;;;;;;;;4982479;28;20074;-80
2023/01/18 11:26:06;;;;;;;2.83;2.00;;;;;;;;;;4998212;28;20097;-80
2023/01/18 11:28:46;;;;;;;3.67;2.00;;;;;;;;;;4998237;28;20036;-79
2023/01/18 11:31:20;;;;;;;6.25;2.17;;;;;;;;;;5015030;28;20026;-79
2023/01/18 11:34:00;;;;;;;8.68;2.28;;;;;;;;;;4997792;28;20033;-80
2023/01/18 11:36:38;;;;;;;4.68;2.00;;;;;;;;;;4997578;28;20069;-80
2023/01/18 11:39:30;;;;;;;4.15;2.00;;;;;;;;;;4997747;28;20022;-79
2023/01/18 11:42:18;;;;;;;5.00;2.20;;;;;;;;;;4997457;28;20076;-79
2023/01/18 11:44:47;;;;;;;3.15;2.00;;;;;;;;;;4997824;28;20115;-79
2023/01/18 11:47:23;;;;;;;3.78;2.10;;;;;;;;;;4981826;28;20496;-80
2023/01/18 11:50:14;;;;;;;3.58;2.00;;;;;;;;;;5015143;28;20103;-79
2023/01/18 11:52:50;;;;;;;2.20;1.80;;;;;;;;;;5014587;28;20021;-81
2023/01/18 11:55:32;;;;;;;7.72;2.08;;;;;;;;;;4997527;28;20029;-80
2023/01/18 11:57:59;;;;;;;18.38;2.17;;;;;;;;;;4997435;28;20033;-78
2023/01/18 12:00:27;;;;;;;5.70;2.15;;;;;;;;;;5014724;28;20110;-79
2023/01/18 12:03:10;;;;;;;5.00;2.05;;;;;;;;;;4997453;28;20393;-79
2023/01/18 12:05:43;;;;;;;4.95;2.08;;;;;;;;;;5014799;28;20109;-80
2023/01/18 12:08:38;;;;;;;5.43;2.10;;;;;;;;;;4997542;28;20369;-80
2023/01/18 12:11:03;;;;;;;;;;;;;;;;;;5002693;28;20424;-78
2023/01/18 12:13:49;;;;;;;3.50;2.20;;;;;;;;;;4997388;28;19916;-80
2023/01/18 12:16:31;;;;;;;6.38;1.85;;;;;;;;;;4997933;28;20390;-80
2023/01/18 12:19:34;;;;;;;3.47;1.85;;;;;;;;;;4999123;28;20079;-80
2023/01/18 12:22:24;;;;;;;6.35;2.20;;;;;;;;;;5014715;28;20041;-79
2023/01/18 12:25:04;;;;;;;2.55;1.63;;;;;;;;;;5014749;28;20084;-79
2023/01/18 12:27:55;;;;;;;4.28;2.03;;;;;;;;;;5013544;28;20022;-79
2023/01/18 12:30:41;;;;;;;4.65;2.30;;;;;;;;;;5013487;28;20088;-79
2023/01/18 12:33:07;;;;;;;7.25;2.25;;;;;;;;;;5013382;28;20035;-79
2023/01/18 12:36:08;;;;;;;2.90;2.00;;;;;;;;;;5014727;28;20388;-78
2023/01/18 12:38:34;;;;;;;3.15;1.80;;;;;;;;;;4973599;28;20030;-78
2023/01/18 12:41:37;;;;;;;5.82;2.30;;;;;;;;;;4957364;28;20190;-78
2023/01/18 12:44:21;;;;;;;3.28;1.80;;;;;;;;;;4973154;28;20526;-78
2023/01/18 12:47:16;;;;;;;2.90;1.75;;;;;;;;;;4973193;28;20042;-80
2023/01/18 12:49:45;;;;;;;6.00;1.80;;;;;;;;;;4973279;28;20031;-81
2023/01/18 12:52:13;;;;;;;3.72;2.53;;;;;;;;;;4973296;28;20049;-80
2023/01/18 12:54:44;;;;;;;2.78;1.88;;;;;;;;;;4973180;28;20038;-81
2023/01/18 12:57:12;;;;;;;3.35;1.83;;;;;;;;;;4940910;28;20034;-80
2023/01/18 12:59:46;;;;;;;3.22;1.88;;;;;;;;;;4957371;28;20367;-80
2023/01/18 13:02:11;;;;;;;5.10;2.40;;;;;;;;;;4956949;28;20514;-80
2023/01/18 13:04:45;;;;;;;4.22;1.98;;;;;;;;;;4973072;28;20089;-78
2023/01/18 13:07:13;;;;;;;6.25;1.90;;;;;;;;;;4956767;28;20030;-80
2023/01/18 13:09:42;;;;;;;5.45;1.80;;;;;;;;;;4956556;28;20046;-80
2023/01/18 13:12:08;;;;;;;3.67;2.08;;;;;;;;;;4973681;28;20113;-80
2023/01/18 13:14:54;;;;;;;3.10;1.83;;;;;;;;;;5012718;28;20437;-79
2023/01/18 13:17:34;;;;;;;4.82;2.00;;;;;;;;;;5013060;28;20026;-79
2023/01/18 13:20:14;;;;;;;3.17;1.80;;;;;;;;;;4996262;28;20132;-81
2023/01/18 13:23:17;;;;;;;2.55;1.75;;;;;;;;;;4996500;28;20033;-78
2023/01/18 13:26:02;;;;;;;5.63;1.85;;;;;;;;;;5014060;28;20022;-83
2023/01/18 13:28:27;;;;;;;2.58;1.63;;;;;;;;;;5012540;28;20033;-83
2023/01/18 13:31:03;;;;;;;5.07;1.95;;;;;;;;;;5013855;28;20029;-82
2023/01/18 13:33:34;;;;;;;5.95;1.88;;;;;;;;;;5012496;28;20492;-83
2023/01/18 13:36:08;;;;;;;5.00;1.92;;;;;;;;;;5012645;28;20517;-83
2023/01/18 13:38:56;;;;;;;5.95;1.90;;;;;;;;;;5009880;28;20053;-82
2023/01/18 13:41:24;;;;;;;3.92;1.95;;;;;;;;;;5012657;28;20489;-82
2023/01/18 13:43:49;;;;;;;3.38;1.75;;;;;;;;;;5011338;28;20022;-82
2023/01/18 13:46:21;;;;;;;4.03;2.10;;;;;;;;;;5012701;28;20381;-82
2023/01/18 13:48:49;;;;;;;3.05;1.60;;;;;;;;;;5011767;28;20022;-83
2023/01/18 13:51:39;;;;;;;7.28;1.90;;;;;;;;;;4996256;28;20022;-82
2023/01/18 13:54:08;;;;;;;2.20;1.40;;;;;;;;;;5011987;28;20022;-82
2023/01/18 13:56:36;;;;;;;1.80;1.58;;;;;;;;;;5013400;28;20029;-82
2023/01/18 13:59:11;;;;;;;2.05;1.50;;;;;;;;;;5030055;28;20018;-82
2023/01/18 14:01:37;;;;;;;2.35;1.73;;;;;;;;;;5032856;28;20080;-82
2023/01/18 14:04:31;;;;;;;3.13;1.70;;;;;;;;;;5031681;28;20083;-82
2023/01/18 14:07:02;;;;;;;1.90;1.70;;;;;;;;;;5015263;28;20021;-82
2023/01/18 14:09:32;;;;;;;4.03;1.60;;;;;;;;;;5031531;28;20392;-82
2023/01/18 14:11:58;;;;;;;3.53;1.60;;;;;;;;;;5031814;28;20032;-82
2023/01/18 14:14:33;;;;;;;1.75;1.30;;;;;;;;;;5032637;28;20037;-83
2023/01/18 14:17:10;;;;;;;3.53;2.00;;;;;;;;;;5032987;28;20357;-83
2023/01/18 14:19:48;;;;;;;2.75;1.50;;;;;;;;;;5031417;28;20053;-82
2023/01/18 14:22:26;;;;;;;3.20;1.60;;;;;;;;;;5036514;28;20026;-82
2023/01/18 14:25:16;;;;;;;3.47;1.30;;;;;;;;;;5036981;28;20111;-83
2023/01/18 14:27:44;;;;;;;3.03;1.50;;;;;;;;;;5035727;28;20095;-81
2023/01/18 14:30:24;;;;;;;3.42;1.60;;;;;;;;;;5035786;28;20025;-80
2023/01/18 14:32:56;;;;;;;1.67;1.25;;;;;;;;;;5036754;28;20389;-82
2023/01/18 14:35:22;;;;;;;2.05;1.20;;;;;;;;;;5036947;28;20028;-79
2023/01/18 14:37:50;;;;;;;2.25;1.58;;;;;;;;;;5037025;28;20380;-81
2023/01/18 14:40:23;;;;;;;2.63;1.30;;;;;;;;;;5036552;28;20589;-82
2023/01/18 14:42:55;;;;;;;4.22;1.45;;;;;;;;;;5035383;28;20033;-81
2023/01/18 14:45:29;;;;;;;2.55;1.55;;;;;;;;;;5035570;28;20044;-79
2023/01/18 14:48:00;;;;;;;2.83;1.55;;;;;;;;;;5035139;28;20029;-79
2023/01/18 14:50:31;;;;;;;2.75;1.40;;;;;;;;;;5035087;28;20096;-79
2023/01/18 14:52:56;;;;;;;2.25;1.30;;;;;;;;;;5035323;28;20045;-79
2023/01/18 14:55:32;;;;;;;4.07;1.60;;;;;;;;;;5034948;28;20068;-80
2023/01/18 14:58:15;;;;;;;1.65;1.30;;;;;;;;;;5018738;28;20034;-81
2023/01/18 15:00:49;;;;;;;2.10;1.52;;;;;;;;;;5036428;28;20026;-80
2023/01/18 15:03:19;;;;;;;;;;;;;;;;;;5035689;28;20039;-80
2023/01/18 15:05:45;;;;;;;5.32;1.50;;;;;;;;;;5034759;28;19916;-80
2023/01/18 15:08:11;;;;;;;3.03;1.42;;;;;;;;;;5035815;28;20034;-80
2023/01/18 15:10:38;;;;;;;2.35;1.40;;;;;;;;;;5051175;28;20060;-81
2023/01/18 15:13:04;;;;;;;1.90;1.58;;;;;;;;;;5036165;28;20033;-80
2023/01/18 15:15:32;;;;;;;1.50;1.17;;;;;;;;;;5035180;28;20087;-82
2023/01/18 15:18:09;;;;;;;3.38;1.50;;;;;;;;;;5034714;28;20022;-81
2023/01/18 15:20:36;;;;;;;3.05;1.60;;;;;;;;;;5021437;28;20045;-81
2023/01/18 15:23:04;;;;;;;2.05;1.27;;;;;;;;;;5040086;28;20456;-81
2023/01/18 15:25:30;;;;;;;2.22;1.50;;;;;;;;;;5055752;28;20033;-81
2023/01/18 15:27:58;;;;;;;1.42;1.23;;;;;;;;;;5055799;28;20021;-80
2023/01/18 15:30:24;;;;;;;1.80;1.20;;;;;;;;;;5037702;28;20467;-79
2023/01/18 15:32:53;;;;;;;2.83;1.63;;;;;;;;;;5054859;28;20040;-80
2023/01/18 15:35:20;;;;;;;2.65;1.40;;;;;;;;;;5037594;28;20068;-80
2023/01/18 15:37:45;;;;;;;2.40;1.40;;;;;;;;;;5037454;28;20036;-80
2023/01/18 15:40:14;;;;;;;2.63;1.20;;;;;;;;;;5055340;28;20024;-81